PWSweather.com
Personal Weather Stations
Station Observations
KNCCHINA3
Red Tractor Trail, China Grove, NC 28023

Red Tractor TrailChina Grove, NC 28023

Lat: 35.59751, Lon: -80.60201

Elevation: 800

Station Type: Oregon Scientific WMR 968

http://www.joesweathergarage.com

High Low Average
Temperature 68.0°F20.0°C 32.1°F0.1°C 50.9°F10.5°C
Dew Point 30.2°F-1.0°C -11.0°F-23.9°C 18.7°F-7.4°C
Winds 11.0 mph 17.7 kmh Calm Calm 4.0 mph SE6.4 kmh SE
Wind Gusts 17.4 mph28.0 kmh -- 8.0 mph12.9 kmh
Humidity 66% 4% 34%
Pressure 30.27 in1025.1 mb 30.06 in1017.9 mb -
Precipitation 0.00 in0.0 mm - -
Hour Temp Dew Point Humidity Winds Wind Gusts Pressure Precip Precip Rate Daily Precip Total
12:03 AM 47.2°F8.4°C 22.6°F-5.2°C 38% 7.7 mph N12.4 kmh N 15.2 mph24.5 kmh 30.09 in1019.0 mb 0.00 in0.0 mm 0.00 in0.0 mm 0.00 in0.0 mm
12:09 AM 47.0°F8.3°C 22.4°F-5.3°C 38% 6.4 mph NNW10.3 kmh NNW 16.2 mph26.1 kmh 30.09 in1019.0 mb 0.00 in0.0 mm 0.00 in0.0 mm 0.00 in0.0 mm
12:14 AM 46.8°F8.2°C 22.2°F-5.4°C 38% 6.2 mph NNW10.0 kmh NNW 16.2 mph26.1 kmh 30.09 in1019.0 mb 0.00 in0.0 mm 0.00 in0.0 mm 0.00 in0.0 mm
12:19 AM 46.7°F8.2°C 22.1°F-5.5°C 38% 7.4 mph N11.9 kmh N 18.8 mph30.3 kmh 30.09 in1019.0 mb 0.00 in0.0 mm 0.00 in0.0 mm 0.00 in0.0 mm
12:24 AM 46.7°F8.2°C 22.1°F-5.5°C 38% 5.2 mph N8.4 kmh N 18.8 mph30.3 kmh 30.09 in1019.0 mb 0.00 in0.0 mm 0.00 in0.0 mm 0.00 in0.0 mm
12:30 AM 46.3°F7.9°C 21.8°F-5.7°C 38% 6.9 mph N11.1 kmh N 15.6 mph25.1 kmh 30.09 in1019.0 mb 0.00 in0.0 mm 0.00 in0.0 mm 0.00 in0.0 mm
12:35 AM 46.3°F7.9°C 21.8°F-5.7°C 38% 11.6 mph NNE18.7 kmh NNE 15.6 mph25.1 kmh 30.09 in1019.0 mb 0.00 in0.0 mm 0.00 in0.0 mm 0.00 in0.0 mm
12:40 AM 46.3°F7.9°C 21.8°F-5.7°C 38% 14.5 mph 23.3 kmh 21.0 mph33.8 kmh 30.09 in1019.0 mb 0.00 in0.0 mm 0.00 in0.0 mm 0.00 in0.0 mm
12:45 AM 46.1°F7.8°C 21.6°F-5.8°C 38% 8.3 mph N13.4 kmh N 21.0 mph33.8 kmh 30.09 in1019.0 mb 0.00 in0.0 mm 0.00 in0.0 mm 0.00 in0.0 mm
12:51 AM 45.9°F7.7°C 21.4°F-5.9°C 38% 8.3 mph N13.4 kmh N 15.6 mph25.1 kmh 30.09 in1019.0 mb 0.00 in0.0 mm 0.00 in0.0 mm 0.00 in0.0 mm
12:56 AM 45.8°F7.7°C 21.3°F-5.9°C 38% 8.6 mph N13.8 kmh N 15.6 mph25.1 kmh 30.09 in1019.0 mb 0.00 in0.0 mm 0.00 in0.0 mm 0.00 in0.0 mm
01:01 AM 45.6°F7.6°C 21.2°F-6.0°C 38% 8.4 mph N13.5 kmh N 15.2 mph24.5 kmh 30.09 in1019.0 mb 0.00 in0.0 mm 0.00 in0.0 mm 0.00 in0.0 mm
01:06 AM 45.4°F7.4°C 21.0°F-6.1°C 38% 7.9 mph N12.7 kmh N 15.2 mph24.5 kmh 30.09 in1019.0 mb 0.00 in0.0 mm 0.00 in0.0 mm 0.00 in0.0 mm
01:11 AM 45.0°F7.2°C 20.6°F-6.3°C 38% 6.8 mph N10.9 kmh N 14.8 mph23.8 kmh 30.09 in1019.0 mb 0.00 in0.0 mm 0.00 in0.0 mm 0.00 in0.0 mm
01:16 AM 44.9°F7.2°C 20.5°F-6.4°C 38% 9.0 mph N14.5 kmh N 13.0 mph20.9 kmh 30.09 in1019.0 mb 0.00 in0.0 mm 0.00 in0.0 mm 0.00 in0.0 mm
01:21 AM 44.7°F7.1°C 20.3°F-6.5°C 38% 7.6 mph N12.2 kmh N 15.2 mph24.5 kmh 30.09 in1019.0 mb 0.00 in0.0 mm 0.00 in0.0 mm 0.00 in0.0 mm
01:26 AM 44.5°F6.9°C 20.2°F-6.6°C 38% 8.0 mph NNE12.9 kmh NNE 15.2 mph24.5 kmh 30.06 in1017.9 mb 0.00 in0.0 mm 0.00 in0.0 mm 0.00 in0.0 mm
01:31 AM 44.3°F6.8°C 20.6°F-6.3°C 39% 5.8 mph NNE9.3 kmh NNE 12.6 mph20.3 kmh 30.06 in1017.9 mb 0.00 in0.0 mm 0.00 in0.0 mm 0.00 in0.0 mm
01:36 AM 44.1°F6.7°C 20.4°F-6.4°C 39% 6.4 mph N10.3 kmh N 12.6 mph20.3 kmh 30.06 in1017.9 mb 0.00 in0.0 mm 0.00 in0.0 mm 0.00 in0.0 mm
01:41 AM 43.8°F6.6°C 20.2°F-6.6°C 39% 5.9 mph NNE9.5 kmh NNE 10.8 mph17.4 kmh 30.09 in1019.0 mb 0.00 in0.0 mm 0.00 in0.0 mm 0.00 in0.0 mm
01:46 AM 43.6°F6.4°C 20.0°F-6.7°C 39% 7.0 mph NNE11.3 kmh NNE 11.2 mph18.0 kmh 30.09 in1019.0 mb 0.00 in0.0 mm 0.00 in0.0 mm 0.00 in0.0 mm
01:52 AM 43.4°F6.3°C 19.8°F-6.8°C 39% 6.5 mph N10.5 kmh N 12.6 mph20.3 kmh 30.06 in1017.9 mb 0.00 in0.0 mm 0.00 in0.0 mm 0.00 in0.0 mm
01:57 AM 43.4°F6.3°C 19.8°F-6.8°C 39% 8.0 mph NNE12.9 kmh NNE 12.6 mph20.3 kmh 30.06 in1017.9 mb 0.00 in0.0 mm 0.00 in0.0 mm 0.00 in0.0 mm
02:02 AM 43.2°F6.2°C 19.6°F-6.9°C 39% 8.8 mph N14.2 kmh N 14.8 mph23.8 kmh 30.06 in1017.9 mb 0.00 in0.0 mm 0.00 in0.0 mm 0.00 in0.0 mm
02:07 AM 42.9°F6.1°C 19.4°F-7.0°C 39% 5.4 mph NNE8.7 kmh NNE 14.8 mph23.8 kmh 30.09 in1019.0 mb 0.00 in0.0 mm 0.00 in0.0 mm 0.00 in0.0 mm
02:13 AM 42.7°F5.9°C 19.2°F-7.1°C 39% 7.2 mph NNE11.6 kmh NNE 10.8 mph17.4 kmh 30.09 in1019.0 mb 0.00 in0.0 mm 0.00 in0.0 mm 0.00 in0.0 mm
02:18 AM 42.5°F5.8°C 19.6°F-6.9°C 40% 6.3 mph N10.1 kmh N 11.2 mph18.0 kmh 30.09 in1019.0 mb 0.00 in0.0 mm 0.00 in0.0 mm 0.00 in0.0 mm
02:23 AM 42.3°F5.7°C 19.4°F-7.0°C 40% 5.2 mph NNE8.4 kmh NNE 11.2 mph18.0 kmh 30.09 in1019.0 mb 0.00 in0.0 mm 0.00 in0.0 mm 0.00 in0.0 mm
02:28 AM 42.2°F5.7°C 19.3°F-7.1°C 40% 6.8 mph N10.9 kmh N 8.0 mph12.9 kmh 30.09 in1019.0 mb 0.00 in0.0 mm 0.00 in0.0 mm 0.00 in0.0 mm
02:36 AM 42.0°F5.6°C 19.2°F-7.1°C 40% 6.8 mph N10.9 kmh N 9.8 mph15.8 kmh 30.09 in1019.0 mb 0.00 in0.0 mm 0.00 in0.0 mm 0.00 in0.0 mm
02:41 AM 42.0°F5.6°C 19.2°F-7.1°C 40% 7.1 mph 11.4 kmh 13.8 mph22.2 kmh 30.09 in1019.0 mb 0.00 in0.0 mm 0.00 in0.0 mm 0.00 in0.0 mm
02:46 AM 42.0°F5.6°C 19.2°F-7.1°C 40% 10.2 mph N16.4 kmh N 14.8 mph23.8 kmh 30.09 in1019.0 mb 0.00 in0.0 mm 0.00 in0.0 mm 0.00 in0.0 mm
02:51 AM 42.0°F5.6°C 19.2°F-7.1°C 40% 8.0 mph NNE12.9 kmh NNE 14.8 mph23.8 kmh 30.09 in1019.0 mb 0.00 in0.0 mm 0.00 in0.0 mm 0.00 in0.0 mm
02:56 AM 41.6°F5.3°C 18.8°F-7.3°C 40% 7.6 mph NNE12.2 kmh NNE 12.0 mph19.3 kmh 30.09 in1019.0 mb 0.00 in0.0 mm 0.00 in0.0 mm 0.00 in0.0 mm
03:01 AM 41.4°F5.2°C 18.6°F-7.4°C 40% 5.2 mph NE8.4 kmh NE 12.0 mph19.3 kmh 30.09 in1019.0 mb 0.00 in0.0 mm 0.00 in0.0 mm 0.00 in0.0 mm
03:06 AM 41.1°F5.1°C 18.3°F-7.6°C 40% 5.9 mph NE9.5 kmh NE 10.8 mph17.4 kmh 30.09 in1019.0 mb 0.00 in0.0 mm 0.00 in0.0 mm 0.00 in0.0 mm
03:11 AM 40.9°F4.9°C 18.2°F-7.7°C 40% 6.3 mph NNE10.1 kmh NNE 9.8 mph15.8 kmh 30.09 in1019.0 mb 0.00 in0.0 mm 0.00 in0.0 mm 0.00 in0.0 mm
03:16 AM 41.1°F5.1°C 18.9°F-7.3°C 41% 8.0 mph N12.9 kmh N 11.2 mph18.0 kmh 30.09 in1019.0 mb 0.00 in0.0 mm 0.00 in0.0 mm 0.00 in0.0 mm
03:21 AM 40.9°F4.9°C 18.7°F-7.4°C 41% 7.1 mph N11.4 kmh N 11.2 mph18.0 kmh 30.09 in1019.0 mb 0.00 in0.0 mm 0.00 in0.0 mm 0.00 in0.0 mm
03:27 AM 40.7°F4.8°C 18.6°F-7.4°C 41% 5.0 mph NE8.0 kmh NE 9.8 mph15.8 kmh 30.09 in1019.0 mb 0.00 in0.0 mm 0.00 in0.0 mm 0.00 in0.0 mm
03:32 AM 40.5°F4.7°C 18.4°F-7.6°C 41% 4.8 mph N7.7 kmh N 8.0 mph12.9 kmh 30.09 in1019.0 mb 0.00 in0.0 mm 0.00 in0.0 mm 0.00 in0.0 mm
03:37 AM 40.2°F4.6°C 18.1°F-7.7°C 41% 3.5 mph NE5.6 kmh NE 8.0 mph12.9 kmh 30.09 in1019.0 mb 0.00 in0.0 mm 0.00 in0.0 mm 0.00 in0.0 mm
03:42 AM 40.2°F4.6°C 18.1°F-7.7°C 41% 5.0 mph NNE8.0 kmh NNE 6.2 mph10.0 kmh 30.09 in1019.0 mb 0.00 in0.0 mm 0.00 in0.0 mm 0.00 in0.0 mm
03:49 AM 39.5°F4.2°C 18.1°F-7.7°C 42% 2.8 mph NNE4.5 kmh NNE 6.2 mph10.0 kmh 30.09 in1019.0 mb 0.00 in0.0 mm 0.00 in0.0 mm 0.00 in0.0 mm
03:54 AM 39.1°F3.9°C 17.7°F-7.9°C 42% 2.2 mph NNE3.5 kmh NNE 5.0 mph8.0 kmh 30.09 in1019.0 mb 0.00 in0.0 mm 0.00 in0.0 mm 0.00 in0.0 mm
04:00 AM 38.6°F3.7°C 17.2°F-8.2°C 42% Calm Calm 2.6 mph4.2 kmh 30.09 in1019.0 mb 0.00 in0.0 mm 0.00 in0.0 mm 0.00 in0.0 mm
04:05 AM 38.4°F3.6°C 17.1°F-8.3°C 42% Calm Calm -- 30.09 in1019.0 mb 0.00 in0.0 mm 0.00 in0.0 mm 0.00 in0.0 mm
04:10 AM 37.7°F3.2°C 16.4°F-8.7°C 42% Calm Calm -- 30.12 in1020.0 mb 0.00 in0.0 mm 0.00 in0.0 mm 0.00 in0.0 mm
04:15 AM 36.9°F2.7°C 16.3°F-8.7°C 43% 3.1 mph E5.0 kmh E 5.0 mph8.0 kmh 30.12 in1020.0 mb 0.00 in0.0 mm 0.00 in0.0 mm 0.00 in0.0 mm
04:20 AM 37.1°F2.8°C 17.0°F-8.3°C 44% 1.9 mph ENE3.1 kmh ENE 5.4 mph8.7 kmh 30.12 in1020.0 mb 0.00 in0.0 mm 0.00 in0.0 mm 0.00 in0.0 mm
04:25 AM 36.9°F2.7°C 17.9°F-7.8°C 46% Calm Calm 5.4 mph8.7 kmh 30.12 in1020.0 mb 0.00 in0.0 mm 0.00 in0.0 mm 0.00 in0.0 mm
04:31 AM 36.8°F2.7°C 17.3°F-8.2°C 45% 6.0 mph ENE9.7 kmh ENE 6.8 mph10.9 kmh 30.12 in1020.0 mb 0.00 in0.0 mm 0.00 in0.0 mm 0.00 in0.0 mm
04:36 AM 36.9°F2.7°C 17.3°F-8.2°C 45% Calm Calm 6.8 mph10.9 kmh 30.12 in1020.0 mb 0.00 in0.0 mm 0.00 in0.0 mm 0.00 in0.0 mm
04:42 AM 36.8°F2.7°C 17.8°F-7.9°C 46% Calm Calm 4.0 mph6.4 kmh 30.12 in1020.0 mb 0.00 in0.0 mm 0.00 in0.0 mm 0.00 in0.0 mm
04:47 AM 36.4°F2.4°C 18.4°F-7.6°C 48% 2.9 mph ENE4.7 kmh ENE 3.2 mph5.1 kmh 30.12 in1020.0 mb 0.00 in0.0 mm 0.00 in0.0 mm 0.00 in0.0 mm
04:53 AM 36.0°F2.2°C 18.6°F-7.4°C 49% Calm Calm 3.2 mph5.1 kmh 30.15 in1021.0 mb 0.00 in0.0 mm 0.00 in0.0 mm 0.00 in0.0 mm
04:58 AM 35.7°F2.1°C 18.3°F-7.6°C 49% Calm Calm 1.8 mph2.9 kmh 30.15 in1021.0 mb 0.00 in0.0 mm 0.00 in0.0 mm 0.00 in0.0 mm
05:04 AM 35.5°F1.9°C 18.6°F-7.4°C 50% Calm Calm -- 30.15 in1021.0 mb 0.00 in0.0 mm 0.00 in0.0 mm 0.00 in0.0 mm
05:09 AM 35.3°F1.8°C 18.9°F-7.3°C 51% Calm Calm -- 30.15 in1021.0 mb 0.00 in0.0 mm 0.00 in0.0 mm 0.00 in0.0 mm
05:14 AM 35.1°F1.7°C 18.7°F-7.4°C 51% Calm Calm -- 30.15 in1021.0 mb 0.00 in0.0 mm 0.00 in0.0 mm 0.00 in0.0 mm
05:19 AM 34.8°F1.6°C 18.4°F-7.6°C 51% Calm Calm -- 30.15 in1021.0 mb 0.00 in0.0 mm 0.00 in0.0 mm 0.00 in0.0 mm
05:24 AM 34.4°F1.3°C 18.0°F-7.8°C 51% Calm Calm -- 30.12 in1020.0 mb 0.00 in0.0 mm 0.00 in0.0 mm 0.00 in0.0 mm
05:29 AM 34.2°F1.2°C 17.9°F-7.8°C 51% Calm Calm -- 30.12 in1020.0 mb 0.00 in0.0 mm 0.00 in0.0 mm 0.00 in0.0 mm
05:34 AM 34.2°F1.2°C 18.8°F-7.3°C 53% 2.7 mph ESE4.3 kmh ESE 3.2 mph5.1 kmh 30.12 in1020.0 mb 0.00 in0.0 mm 0.00 in0.0 mm 0.00 in0.0 mm
05:39 AM 34.2°F1.2°C 19.2°F-7.1°C 54% 2.3 mph ESE3.7 kmh ESE 3.2 mph5.1 kmh 30.18 in1022.0 mb 0.00 in0.0 mm 0.00 in0.0 mm 0.00 in0.0 mm
05:44 AM 33.9°F1.1°C 19.4°F-7.0°C 55% 3.2 mph SSW5.1 kmh SSW 5.0 mph8.0 kmh 30.18 in1022.0 mb 0.00 in0.0 mm 0.00 in0.0 mm 0.00 in0.0 mm
05:49 AM 33.7°F0.9°C 19.2°F-7.1°C 55% 2.1 mph SSW3.4 kmh SSW 5.0 mph8.0 kmh 30.18 in1022.0 mb 0.00 in0.0 mm 0.00 in0.0 mm 0.00 in0.0 mm
05:55 AM 33.5°F0.8°C 19.9°F-6.7°C 57% Calm Calm 2.6 mph4.2 kmh 30.12 in1020.0 mb 0.00 in0.0 mm 0.00 in0.0 mm 0.00 in0.0 mm
06:00 AM 33.3°F0.7°C 19.7°F-6.8°C 57% 2.6 mph ENE4.2 kmh ENE 4.0 mph6.4 kmh 30.12 in1020.0 mb 0.00 in0.0 mm 0.00 in0.0 mm 0.00 in0.0 mm
06:18 AM 32.8°F0.4°C 19.2°F-7.1°C 57% Calm Calm -- 30.15 in1021.0 mb 0.00 in0.0 mm 0.00 in0.0 mm 0.00 in0.0 mm
06:23 AM 32.6°F0.3°C 19.4°F-7.0°C 58% Calm Calm -- 30.15 in1021.0 mb 0.00 in0.0 mm 0.00 in0.0 mm 0.00 in0.0 mm
06:28 AM 32.4°F0.2°C 18.8°F-7.3°C 57% Calm Calm -- 30.15 in1021.0 mb 0.00 in0.0 mm 0.00 in0.0 mm 0.00 in0.0 mm
06:34 AM 32.6°F0.3°C 19.4°F-7.0°C 58% 4.5 mph ENE7.2 kmh ENE 5.4 mph8.7 kmh 30.15 in1021.0 mb 0.00 in0.0 mm 0.00 in0.0 mm 0.00 in0.0 mm
06:39 AM 32.6°F0.3°C 19.4°F-7.0°C 58% 1.8 mph ENE2.9 kmh ENE 5.4 mph8.7 kmh 30.21 in1023.0 mb 0.00 in0.0 mm 0.00 in0.0 mm 0.00 in0.0 mm
06:44 AM 32.6°F0.3°C 19.8°F-6.8°C 59% 3.5 mph ENE5.6 kmh ENE 4.0 mph6.4 kmh 30.21 in1023.0 mb 0.00 in0.0 mm 0.00 in0.0 mm 0.00 in0.0 mm
06:49 AM 32.6°F0.3°C 20.6°F-6.3°C 61% 2.1 mph ENE3.4 kmh ENE 4.4 mph7.1 kmh 30.21 in1023.0 mb 0.00 in0.0 mm 0.00 in0.0 mm 0.00 in0.0 mm
06:54 AM 32.3°F0.2°C 20.4°F-6.4°C 61% Calm Calm 4.4 mph7.1 kmh 30.21 in1023.0 mb 0.00 in0.0 mm 0.00 in0.0 mm 0.00 in0.0 mm
06:59 AM 32.1°F0.1°C 20.2°F-6.6°C 61% Calm Calm 1.8 mph2.9 kmh 30.21 in1023.0 mb 0.00 in0.0 mm 0.00 in0.0 mm 0.00 in0.0 mm
07:04 AM 32.4°F0.2°C 20.5°F-6.4°C 61% Calm Calm -- 30.21 in1023.0 mb 0.00 in0.0 mm 0.00 in0.0 mm 0.00 in0.0 mm
07:09 AM 32.3°F0.2°C 20.4°F-6.4°C 61% Calm Calm -- 30.21 in1023.0 mb 0.00 in0.0 mm 0.00 in0.0 mm 0.00 in0.0 mm
07:14 AM 32.3°F0.2°C 21.5°F-5.8°C 64% Calm Calm -- 30.21 in1023.0 mb 0.00 in0.0 mm 0.00 in0.0 mm 0.00 in0.0 mm
07:19 AM 32.1°F0.1°C 21.3°F-5.9°C 64% Calm Calm -- 30.21 in1023.0 mb 0.00 in0.0 mm 0.00 in0.0 mm 0.00 in0.0 mm
07:24 AM 32.1°F0.1°C 20.9°F-6.2°C 63% Calm Calm -- 30.21 in1023.0 mb 0.00 in0.0 mm 0.00 in0.0 mm 0.00 in0.0 mm
07:29 AM 32.1°F0.1°C 20.9°F-6.2°C 63% Calm Calm -- 30.21 in1023.0 mb 0.00 in0.0 mm 0.00 in0.0 mm 0.00 in0.0 mm
07:34 AM 32.3°F0.2°C 21.1°F-6.1°C 63% Calm Calm -- 30.21 in1023.0 mb 0.00 in0.0 mm 0.00 in0.0 mm 0.00 in0.0 mm
07:39 AM 32.6°F0.3°C 22.2°F-5.4°C 65% Calm Calm -- 30.18 in1022.0 mb 0.00 in0.0 mm 0.00 in0.0 mm 0.00 in0.0 mm
07:44 AM 33.0°F0.6°C 22.9°F-5.1°C 66% Calm Calm -- 30.18 in1022.0 mb 0.00 in0.0 mm 0.00 in0.0 mm 0.00 in0.0 mm
07:49 AM 33.7°F0.9°C 23.2°F-4.9°C 65% Calm Calm -- 30.18 in1022.0 mb 0.00 in0.0 mm 0.00 in0.0 mm 0.00 in0.0 mm
07:54 AM 34.8°F1.6°C 24.3°F-4.3°C 65% 1.8 mph ESE2.9 kmh ESE 2.6 mph4.2 kmh 30.21 in1023.0 mb 0.00 in0.0 mm 0.00 in0.0 mm 0.00 in0.0 mm
07:59 AM 36.2°F2.3°C 25.6°F-3.6°C 65% Calm Calm 2.6 mph4.2 kmh 30.21 in1023.0 mb 0.00 in0.0 mm 0.00 in0.0 mm 0.00 in0.0 mm
08:04 AM 37.7°F3.2°C 27.0°F-2.8°C 65% Calm Calm -- 30.21 in1023.0 mb 0.00 in0.0 mm 0.00 in0.0 mm 0.00 in0.0 mm
08:09 AM 38.7°F3.7°C 28.0°F-2.2°C 65% 2.1 mph ESE3.4 kmh ESE 2.2 mph3.5 kmh 30.24 in1024.0 mb 0.00 in0.0 mm 0.00 in0.0 mm 0.00 in0.0 mm
08:14 AM 39.6°F4.2°C 27.7°F-2.4°C 62% Calm Calm 2.2 mph3.5 kmh 30.24 in1024.0 mb 0.00 in0.0 mm 0.00 in0.0 mm 0.00 in0.0 mm
08:19 AM 40.5°F4.7°C 27.7°F-2.4°C 60% 3.3 mph ESE5.3 kmh ESE 5.8 mph9.3 kmh 30.24 in1024.0 mb 0.00 in0.0 mm 0.00 in0.0 mm 0.00 in0.0 mm
08:24 AM 40.9°F4.9°C 25.9°F-3.4°C 55% 4.7 mph ESE7.6 kmh ESE 5.8 mph9.3 kmh 30.24 in1024.0 mb 0.00 in0.0 mm 0.00 in0.0 mm 0.00 in0.0 mm
08:29 AM 41.4°F5.2°C 25.9°F-3.4°C 54% 4.3 mph ESE6.9 kmh ESE 5.8 mph9.3 kmh 30.24 in1024.0 mb 0.00 in0.0 mm 0.00 in0.0 mm 0.00 in0.0 mm
08:34 AM 42.2°F5.7°C 26.2°F-3.2°C 53% 3.9 mph E6.3 kmh E 6.2 mph10.0 kmh 30.24 in1024.0 mb 0.00 in0.0 mm 0.00 in0.0 mm 0.00 in0.0 mm
08:39 AM 42.3°F5.7°C 25.4°F-3.7°C 51% 6.0 mph ENE9.7 kmh ENE 8.0 mph12.9 kmh 30.24 in1024.0 mb 0.00 in0.0 mm 0.00 in0.0 mm 0.00 in0.0 mm
08:44 AM 42.2°F5.7°C 24.8°F-4.0°C 50% 6.5 mph ENE10.5 kmh ENE 9.4 mph15.1 kmh 30.24 in1024.0 mb 0.00 in0.0 mm 0.00 in0.0 mm 0.00 in0.0 mm
08:49 AM 42.5°F5.8°C 24.5°F-4.2°C 49% 4.9 mph NE7.9 kmh NE 9.4 mph15.1 kmh 30.24 in1024.0 mb 0.00 in0.0 mm 0.00 in0.0 mm 0.00 in0.0 mm
08:54 AM 42.5°F5.8°C 24.5°F-4.2°C 49% 4.5 mph E7.2 kmh E 10.8 mph17.4 kmh 30.24 in1024.0 mb 0.00 in0.0 mm 0.00 in0.0 mm 0.00 in0.0 mm
08:59 AM 43.1°F6.2°C 24.6°F-4.1°C 48% 6.0 mph NE9.7 kmh NE 10.8 mph17.4 kmh 30.24 in1024.0 mb 0.00 in0.0 mm 0.00 in0.0 mm 0.00 in0.0 mm
09:04 AM 43.6°F6.4°C 25.0°F-3.9°C 48% 5.7 mph NE9.2 kmh NE 9.8 mph15.8 kmh 30.24 in1024.0 mb 0.00 in0.0 mm 0.00 in0.0 mm 0.00 in0.0 mm
09:09 AM 43.8°F6.6°C 25.2°F-3.8°C 48% 5.5 mph E8.9 kmh E 9.8 mph15.8 kmh 30.24 in1024.0 mb 0.00 in0.0 mm 0.00 in0.0 mm 0.00 in0.0 mm
09:14 AM 44.5°F6.9°C 25.4°F-3.7°C 47% 6.2 mph ENE10.0 kmh ENE 10.8 mph17.4 kmh 30.24 in1024.0 mb 0.00 in0.0 mm 0.00 in0.0 mm 0.00 in0.0 mm
09:19 AM 45.2°F7.3°C 26.0°F-3.3°C 47% 6.7 mph NE10.8 kmh NE 10.8 mph17.4 kmh 30.24 in1024.0 mb 0.00 in0.0 mm 0.00 in0.0 mm 0.00 in0.0 mm
09:25 AM 46.1°F7.8°C 25.7°F-3.5°C 45% 8.4 mph NNE13.5 kmh NNE 12.0 mph19.3 kmh 30.24 in1024.0 mb 0.00 in0.0 mm 0.00 in0.0 mm 0.00 in0.0 mm
09:30 AM 47.4°F8.6°C 26.4°F-3.1°C 44% 7.8 mph NE12.6 kmh NE 12.0 mph19.3 kmh 30.24 in1024.0 mb 0.00 in0.0 mm 0.00 in0.0 mm 0.00 in0.0 mm
09:35 AM 48.3°F9.1°C 26.6°F-3.0°C 43% 4.5 mph ENE7.2 kmh ENE 9.4 mph15.1 kmh 30.24 in1024.0 mb 0.00 in0.0 mm 0.00 in0.0 mm 0.00 in0.0 mm
09:40 AM 49.4°F9.7°C 26.4°F-3.1°C 41% 7.2 mph ENE11.6 kmh ENE 10.8 mph17.4 kmh 30.24 in1024.0 mb 0.00 in0.0 mm 0.00 in0.0 mm 0.00 in0.0 mm
09:45 AM 49.9°F9.9°C 26.9°F-2.8°C 41% 6.4 mph E10.3 kmh E 10.8 mph17.4 kmh 30.24 in1024.0 mb 0.00 in0.0 mm 0.00 in0.0 mm 0.00 in0.0 mm
09:50 AM 50.6°F10.3°C 26.9°F-2.8°C 40% 6.1 mph ENE9.8 kmh ENE 10.8 mph17.4 kmh 30.24 in1024.0 mb 0.00 in0.0 mm 0.00 in0.0 mm 0.00 in0.0 mm
09:55 AM 51.2°F10.7°C 27.4°F-2.6°C 40% 8.0 mph NE12.9 kmh NE 10.8 mph17.4 kmh 30.24 in1024.0 mb 0.00 in0.0 mm 0.00 in0.0 mm 0.00 in0.0 mm
10:00 AM 51.2°F10.7°C 26.8°F-2.9°C 39% 6.8 mph NE10.9 kmh NE 10.8 mph17.4 kmh 30.24 in1024.0 mb 0.00 in0.0 mm 0.00 in0.0 mm 0.00 in0.0 mm
10:05 AM 51.2°F10.7°C 26.8°F-2.9°C 39% 7.0 mph NNE11.3 kmh NNE 11.2 mph18.0 kmh 30.24 in1024.0 mb 0.00 in0.0 mm 0.00 in0.0 mm 0.00 in0.0 mm
10:10 AM 51.3°F10.7°C 26.2°F-3.2°C 38% 11.0 mph NNE17.7 kmh NNE 15.6 mph25.1 kmh 30.24 in1024.0 mb 0.00 in0.0 mm 0.00 in0.0 mm 0.00 in0.0 mm
10:15 AM 52.6°F11.4°C 27.4°F-2.6°C 38% 4.9 mph NE7.9 kmh NE 15.6 mph25.1 kmh 30.24 in1024.0 mb 0.00 in0.0 mm 0.00 in0.0 mm 0.00 in0.0 mm
10:20 AM 53.0°F11.7°C 27.1°F-2.7°C 37% 10.4 mph NE16.7 kmh NE 14.4 mph23.2 kmh 30.24 in1024.0 mb 0.00 in0.0 mm 0.00 in0.0 mm 0.00 in0.0 mm
10:25 AM 54.0°F12.2°C 27.3°F-2.6°C 36% 5.3 mph NNE8.5 kmh NNE 14.4 mph23.2 kmh 30.27 in1025.1 mb 0.00 in0.0 mm 0.00 in0.0 mm 0.00 in0.0 mm
10:30 AM 55.3°F12.9°C 28.5°F-1.9°C 36% 8.0 mph ENE12.9 kmh ENE 12.0 mph19.3 kmh 30.27 in1025.1 mb 0.00 in0.0 mm 0.00 in0.0 mm 0.00 in0.0 mm
10:36 AM 54.6°F12.6°C 27.9°F-2.3°C 36% 8.0 mph NE12.9 kmh NE 15.2 mph24.5 kmh 30.27 in1025.1 mb 0.00 in0.0 mm 0.00 in0.0 mm 0.00 in0.0 mm
10:41 AM 54.6°F12.6°C 27.9°F-2.3°C 36% 6.5 mph N10.5 kmh N 17.4 mph28.0 kmh 30.27 in1025.1 mb 0.00 in0.0 mm 0.00 in0.0 mm 0.00 in0.0 mm
10:46 AM 56.6°F13.7°C 29.6°F-1.3°C 36% 6.0 mph ESE9.7 kmh ESE 17.4 mph28.0 kmh 30.27 in1025.1 mb 0.00 in0.0 mm 0.00 in0.0 mm 0.00 in0.0 mm
10:51 AM 58.0°F14.4°C 30.2°F-1.0°C 35% 6.0 mph E9.7 kmh E 9.8 mph15.8 kmh 30.27 in1025.1 mb 0.00 in0.0 mm 0.00 in0.0 mm 0.00 in0.0 mm
10:56 AM 57.6°F14.2°C 29.8°F-1.2°C 35% 9.1 mph NE14.6 kmh NE 11.2 mph18.0 kmh 30.24 in1024.0 mb 0.00 in0.0 mm 0.00 in0.0 mm 0.00 in0.0 mm
11:01 AM 57.1°F13.9°C 29.4°F-1.4°C 35% 4.8 mph N7.7 kmh N 12.0 mph19.3 kmh 30.24 in1024.0 mb 0.00 in0.0 mm 0.00 in0.0 mm 0.00 in0.0 mm
11:06 AM 57.1°F13.9°C 28.7°F-1.8°C 34% 8.7 mph NE14.0 kmh NE 13.0 mph20.9 kmh 30.24 in1024.0 mb 0.00 in0.0 mm 0.00 in0.0 mm 0.00 in0.0 mm
11:11 AM 57.5°F14.2°C 29.0°F-1.7°C 34% 6.4 mph N10.3 kmh N 13.0 mph20.9 kmh 30.27 in1025.1 mb 0.00 in0.0 mm 0.00 in0.0 mm 0.00 in0.0 mm
11:16 AM 58.4°F14.7°C 29.1°F-1.6°C 33% 5.9 mph ENE9.5 kmh ENE 11.6 mph18.7 kmh 30.27 in1025.1 mb 0.00 in0.0 mm 0.00 in0.0 mm 0.00 in0.0 mm
11:21 AM 58.7°F14.8°C 29.3°F-1.5°C 33% 3.8 mph NE6.1 kmh NE 11.6 mph18.7 kmh 30.27 in1025.1 mb 0.00 in0.0 mm 0.00 in0.0 mm 0.00 in0.0 mm
11:26 AM 58.0°F14.4°C 26.4°F-3.1°C 30% 8.0 mph N12.9 kmh N 12.6 mph20.3 kmh 30.27 in1025.1 mb 0.00 in0.0 mm 0.00 in0.0 mm 0.00 in0.0 mm
11:31 AM 57.8°F14.3°C 25.4°F-3.7°C 29% 6.7 mph NNW10.8 kmh NNW 12.6 mph20.3 kmh 30.27 in1025.1 mb 0.00 in0.0 mm 0.00 in0.0 mm 0.00 in0.0 mm
11:37 AM 58.9°F14.9°C 25.5°F-3.6°C 28% 5.3 mph N8.5 kmh N 11.6 mph18.7 kmh 30.27 in1025.1 mb 0.00 in0.0 mm 0.00 in0.0 mm 0.00 in0.0 mm
11:42 AM 58.2°F14.6°C 24.9°F-3.9°C 28% 7.8 mph W12.6 kmh W 12.0 mph19.3 kmh 30.27 in1025.1 mb 0.00 in0.0 mm 0.00 in0.0 mm 0.00 in0.0 mm
11:49 AM 57.8°F14.3°C 23.7°F-4.6°C 27% 9.9 mph N15.9 kmh N 12.6 mph20.3 kmh 30.27 in1025.1 mb 0.00 in0.0 mm 0.00 in0.0 mm 0.00 in0.0 mm
11:54 AM 59.8°F15.4°C 26.3°F-3.2°C 28% 4.9 mph WSW7.9 kmh WSW 12.6 mph20.3 kmh 30.27 in1025.1 mb 0.00 in0.0 mm 0.00 in0.0 mm 0.00 in0.0 mm
12:01 PM 58.4°F14.7°C 24.3°F-4.3°C 27% 5.3 mph NW8.5 kmh NW 10.8 mph17.4 kmh 30.27 in1025.1 mb 0.00 in0.0 mm 0.00 in0.0 mm 0.00 in0.0 mm
12:06 PM 58.5°F14.7°C 23.5°F-4.7°C 26% 7.0 mph W11.3 kmh W 11.6 mph18.7 kmh 30.27 in1025.1 mb 0.00 in0.0 mm 0.00 in0.0 mm 0.00 in0.0 mm
12:11 PM 59.1°F15.1°C 24.0°F-4.4°C 26% 7.0 mph W11.3 kmh W 11.6 mph18.7 kmh 30.24 in1024.0 mb 0.00 in0.0 mm 0.00 in0.0 mm 0.00 in0.0 mm
12:16 PM 59.9°F15.5°C 24.7°F-4.1°C 26% 4.4 mph N7.1 kmh N 9.8 mph15.8 kmh 30.24 in1024.0 mb 0.00 in0.0 mm 0.00 in0.0 mm 0.00 in0.0 mm
12:21 PM 60.4°F15.8°C 24.2°F-4.3°C 25% 7.5 mph N12.1 kmh N 10.8 mph17.4 kmh 30.24 in1024.0 mb 0.00 in0.0 mm 0.00 in0.0 mm 0.00 in0.0 mm
12:26 PM 59.3°F15.2°C 23.2°F-4.9°C 25% 4.9 mph W7.9 kmh W 10.8 mph17.4 kmh 30.24 in1024.0 mb 0.00 in0.0 mm 0.00 in0.0 mm 0.00 in0.0 mm
12:31 PM 58.7°F14.8°C 22.7°F-5.2°C 25% 7.5 mph SW12.1 kmh SW 9.8 mph15.8 kmh 30.24 in1024.0 mb 0.00 in0.0 mm 0.00 in0.0 mm 0.00 in0.0 mm
12:36 PM 59.4°F15.2°C 23.3°F-4.8°C 25% 5.2 mph NW8.4 kmh NW 11.6 mph18.7 kmh 30.24 in1024.0 mb 0.00 in0.0 mm 0.00 in0.0 mm 0.00 in0.0 mm
12:41 PM 59.8°F15.4°C 23.6°F-4.7°C 25% 5.5 mph W8.9 kmh W 11.6 mph18.7 kmh 30.24 in1024.0 mb 0.00 in0.0 mm 0.00 in0.0 mm 0.00 in0.0 mm
12:46 PM 61.1°F16.2°C 18.4°F-7.6°C 19% 10.3 mph NE16.6 kmh NE 16.2 mph26.1 kmh 30.24 in1024.0 mb 0.00 in0.0 mm 0.00 in0.0 mm 0.00 in0.0 mm
12:53 PM 60.1°F15.6°C 21.0°F-6.1°C 22% 9.1 mph NNE14.6 kmh NNE 17.0 mph27.4 kmh 30.24 in1024.0 mb 0.00 in0.0 mm 0.00 in0.0 mm 0.00 in0.0 mm
12:58 PM 61.5°F16.4°C 18.8°F-7.3°C 19% 5.0 mph NE8.0 kmh NE 13.0 mph20.9 kmh 30.24 in1024.0 mb 0.00 in0.0 mm 0.00 in0.0 mm 0.00 in0.0 mm
01:03 PM 61.3°F16.3°C 20.9°F-6.2°C 21% 6.7 mph N10.8 kmh N 13.0 mph20.9 kmh 30.24 in1024.0 mb 0.00 in0.0 mm 0.00 in0.0 mm 0.00 in0.0 mm
01:08 PM 61.9°F16.6°C 24.5°F-4.2°C 24% 6.2 mph NW10.0 kmh NW 13.0 mph20.9 kmh 30.21 in1023.0 mb 0.00 in0.0 mm 0.00 in0.0 mm 0.00 in0.0 mm
01:14 PM 62.8°F17.1°C 25.3°F-3.7°C 24% 5.0 mph NW8.0 kmh NW 11.2 mph18.0 kmh 30.21 in1023.0 mb 0.00 in0.0 mm 0.00 in0.0 mm 0.00 in0.0 mm
01:18 PM 64.2°F17.9°C 25.5°F-3.6°C 23% 4.8 mph E7.7 kmh E 8.6 mph13.8 kmh 30.21 in1023.0 mb 0.00 in0.0 mm 0.00 in0.0 mm 0.00 in0.0 mm
01:24 PM 63.7°F17.6°C 26.1°F-3.3°C 24% 5.1 mph W8.2 kmh W 8.6 mph13.8 kmh 30.21 in1023.0 mb 0.00 in0.0 mm 0.00 in0.0 mm 0.00 in0.0 mm
01:29 PM 64.2°F17.9°C 25.5°F-3.6°C 23% 5.4 mph NNE8.7 kmh NNE 8.6 mph13.8 kmh 30.21 in1023.0 mb 0.00 in0.0 mm 0.00 in0.0 mm 0.00 in0.0 mm
01:34 PM 65.3°F18.5°C 20.6°F-6.3°C 18% 5.4 mph E8.7 kmh E 11.6 mph18.7 kmh 30.21 in1023.0 mb 0.00 in0.0 mm 0.00 in0.0 mm 0.00 in0.0 mm
01:39 PM 65.6°F18.7°C 23.3°F-4.8°C 20% 4.4 mph NW7.1 kmh NW 11.6 mph18.7 kmh 30.21 in1023.0 mb 0.00 in0.0 mm 0.00 in0.0 mm 0.00 in0.0 mm
01:44 PM 65.5°F18.6°C 20.8°F-6.2°C 18% 6.0 mph SE9.7 kmh SE 9.0 mph14.5 kmh 30.21 in1023.0 mb 0.00 in0.0 mm 0.00 in0.0 mm 0.00 in0.0 mm
01:49 PM 65.8°F18.8°C 16.7°F-8.5°C 15% 6.5 mph S10.5 kmh S 11.6 mph18.7 kmh 30.21 in1023.0 mb 0.00 in0.0 mm 0.00 in0.0 mm 0.00 in0.0 mm
01:54 PM 64.9°F18.3°C 16.0°F-8.9°C 15% 8.9 mph ENE14.3 kmh ENE 15.6 mph25.1 kmh 30.21 in1023.0 mb 0.00 in0.0 mm 0.00 in0.0 mm 0.00 in0.0 mm
01:59 PM 64.2°F17.9°C 12.1°F-11.1°C 13% 10.3 mph ENE16.6 kmh ENE 15.6 mph25.1 kmh 30.21 in1023.0 mb 0.00 in0.0 mm 0.00 in0.0 mm 0.00 in0.0 mm
02:04 PM 64.9°F18.3°C 20.3°F-6.5°C 18% 4.0 mph SW6.4 kmh SW 13.0 mph20.9 kmh 30.21 in1023.0 mb 0.00 in0.0 mm 0.00 in0.0 mm 0.00 in0.0 mm
02:09 PM 65.6°F18.7°C 16.6°F-8.6°C 15% 6.6 mph ENE10.6 kmh ENE 12.0 mph19.3 kmh 30.24 in1024.0 mb 0.00 in0.0 mm 0.00 in0.0 mm 0.00 in0.0 mm
02:15 PM 66.5°F19.2°C 20.2°F-6.6°C 17% 3.9 mph W6.3 kmh W 15.6 mph25.1 kmh 30.24 in1024.0 mb 0.00 in0.0 mm 0.00 in0.0 mm 0.00 in0.0 mm
02:20 PM 65.8°F18.8°C 16.7°F-8.5°C 15% 6.4 mph NNE10.3 kmh NNE 11.6 mph18.7 kmh 30.24 in1024.0 mb 0.00 in0.0 mm 0.00 in0.0 mm 0.00 in0.0 mm
02:25 PM 66.0°F18.9°C 16.9°F-8.4°C 15% 8.5 mph NNE13.7 kmh NNE 13.0 mph20.9 kmh 30.21 in1023.0 mb 0.00 in0.0 mm 0.00 in0.0 mm 0.00 in0.0 mm
02:30 PM 64.9°F18.3°C 20.3°F-6.5°C 18% 7.5 mph NNW12.1 kmh NNW 15.6 mph25.1 kmh 30.21 in1023.0 mb 0.00 in0.0 mm 0.00 in0.0 mm 0.00 in0.0 mm
02:35 PM 64.2°F17.9°C 15.5°F-9.2°C 15% 6.5 mph WNW10.5 kmh WNW 15.6 mph25.1 kmh 30.21 in1023.0 mb 0.00 in0.0 mm 0.00 in0.0 mm 0.00 in0.0 mm
02:40 PM 65.3°F18.5°C 16.3°F-8.7°C 15% 7.6 mph SSE12.2 kmh SSE 9.8 mph15.8 kmh 30.21 in1023.0 mb 0.00 in0.0 mm 0.00 in0.0 mm 0.00 in0.0 mm
02:46 PM 66.9°F19.4°C 17.6°F-8.0°C 15% 5.6 mph S9.0 kmh S 9.8 mph15.8 kmh 30.21 in1023.0 mb 0.00 in0.0 mm 0.00 in0.0 mm 0.00 in0.0 mm
02:51 PM 65.8°F18.8°C 21.0°F-6.1°C 18% 5.2 mph WNW8.4 kmh WNW 9.8 mph15.8 kmh 30.21 in1023.0 mb 0.00 in0.0 mm 0.00 in0.0 mm 0.00 in0.0 mm
02:56 PM 65.6°F18.7°C 20.9°F-6.2°C 18% 5.4 mph W8.7 kmh W 9.8 mph15.8 kmh 30.21 in1023.0 mb 0.00 in0.0 mm 0.00 in0.0 mm 0.00 in0.0 mm
03:01 PM 66.7°F19.3°C 12.2°F-11.0°C 12% 3.2 mph E5.1 kmh E 11.6 mph18.7 kmh 30.21 in1023.0 mb 0.00 in0.0 mm 0.00 in0.0 mm 0.00 in0.0 mm
03:06 PM 66.5°F19.2°C 7.9°F-13.4°C 10% 5.0 mph NE8.0 kmh NE 11.6 mph18.7 kmh 30.21 in1023.0 mb 0.00 in0.0 mm 0.00 in0.0 mm 0.00 in0.0 mm
03:11 PM 68.0°F20.0°C 13.3°F-10.4°C 12% 5.4 mph NE8.7 kmh NE 9.8 mph15.8 kmh 30.18 in1022.0 mb 0.00 in0.0 mm 0.00 in0.0 mm 0.00 in0.0 mm
03:17 PM 67.1°F19.5°C 0.6°F-17.4°C 7% 6.2 mph NW10.0 kmh NW 8.6 mph13.8 kmh 30.18 in1022.0 mb 0.00 in0.0 mm 0.00 in0.0 mm 0.00 in0.0 mm
03:22 PM 67.6°F19.8°C 12.9°F-10.6°C 12% 5.4 mph WSW8.7 kmh WSW 8.6 mph13.8 kmh 30.18 in1022.0 mb 0.00 in0.0 mm 0.00 in0.0 mm 0.00 in0.0 mm
03:27 PM 66.0°F18.9°C -0.2°F-17.9°C 7% 8.0 mph WNW12.9 kmh WNW 11.2 mph18.0 kmh 30.18 in1022.0 mb 0.00 in0.0 mm 0.00 in0.0 mm 0.00 in0.0 mm
03:32 PM 65.3°F18.5°C 7.0°F-13.9°C 10% 5.8 mph NNW9.3 kmh NNW 11.2 mph18.0 kmh 30.18 in1022.0 mb 0.00 in0.0 mm 0.00 in0.0 mm 0.00 in0.0 mm
03:38 PM 65.8°F18.8°C 2.5°F-16.4°C 8% 4.4 mph WSW7.1 kmh WSW 8.6 mph13.8 kmh 30.15 in1021.0 mb 0.00 in0.0 mm 0.00 in0.0 mm 0.00 in0.0 mm
03:43 PM 66.9°F19.4°C 0.5°F-17.5°C 7% 5.8 mph S9.3 kmh S 8.6 mph13.8 kmh 30.15 in1021.0 mb 0.00 in0.0 mm 0.00 in0.0 mm 0.00 in0.0 mm
03:48 PM 66.9°F19.4°C 0.5°F-17.5°C 7% 4.5 mph E7.2 kmh E 7.2 mph11.6 kmh 30.15 in1021.0 mb 0.00 in0.0 mm 0.00 in0.0 mm 0.00 in0.0 mm
03:53 PM 67.3°F19.6°C 0.8°F-17.3°C 7% 4.9 mph WSW7.9 kmh WSW 6.8 mph10.9 kmh 30.15 in1021.0 mb 0.00 in0.0 mm 0.00 in0.0 mm 0.00 in0.0 mm
03:58 PM 66.9°F19.4°C 0.5°F-17.5°C 7% 5.6 mph SSW9.0 kmh SSW 7.2 mph11.6 kmh 30.15 in1021.0 mb 0.00 in0.0 mm 0.00 in0.0 mm 0.00 in0.0 mm
04:03 PM 66.4°F19.1°C -10.1°F-23.4°C 4% 5.6 mph S9.0 kmh S 8.0 mph12.9 kmh 30.15 in1021.0 mb 0.00 in0.0 mm 0.00 in0.0 mm 0.00 in0.0 mm
04:09 PM 67.3°F19.6°C -9.4°F-23.0°C 4% 5.9 mph S9.5 kmh S 8.0 mph12.9 kmh 30.12 in1020.0 mb 0.00 in0.0 mm 0.00 in0.0 mm 0.00 in0.0 mm
04:14 PM 66.4°F19.1°C -10.1°F-23.4°C 4% 5.2 mph SW8.4 kmh SW 8.0 mph12.9 kmh 30.12 in1020.0 mb 0.00 in0.0 mm 0.00 in0.0 mm 0.00 in0.0 mm
04:19 PM 66.0°F18.9°C -6.6°F-21.4°C 5% 5.6 mph SW9.0 kmh SW 9.0 mph14.5 kmh 30.12 in1020.0 mb 0.00 in0.0 mm 0.00 in0.0 mm 0.00 in0.0 mm
04:24 PM 65.8°F18.8°C -6.8°F-21.6°C 5% 3.4 mph S5.5 kmh S 11.2 mph18.0 kmh 30.15 in1021.0 mb 0.00 in0.0 mm 0.00 in0.0 mm 0.00 in0.0 mm
04:30 PM 66.7°F19.3°C -6.1°F-21.2°C 5% 4.1 mph NE6.6 kmh NE 11.2 mph18.0 kmh 30.15 in1021.0 mb 0.00 in0.0 mm 0.00 in0.0 mm 0.00 in0.0 mm
04:35 PM 66.2°F19.0°C -10.2°F-23.4°C 4% 8.3 mph NNE13.4 kmh NNE 11.6 mph18.7 kmh 30.15 in1021.0 mb 0.00 in0.0 mm 0.00 in0.0 mm 0.00 in0.0 mm
04:40 PM 66.2°F19.0°C -10.2°F-23.4°C 4% 5.7 mph SSW9.2 kmh SSW 11.6 mph18.7 kmh 30.15 in1021.0 mb 0.00 in0.0 mm 0.00 in0.0 mm 0.00 in0.0 mm
04:45 PM 66.7°F19.3°C -9.8°F-23.2°C 4% 6.9 mph N11.1 kmh N 12.0 mph19.3 kmh 30.15 in1021.0 mb 0.00 in0.0 mm 0.00 in0.0 mm 0.00 in0.0 mm
04:50 PM 67.1°F19.5°C -9.6°F-23.1°C 4% 5.3 mph SE8.5 kmh SE 12.0 mph19.3 kmh 30.15 in1021.0 mb 0.00 in0.0 mm 0.00 in0.0 mm 0.00 in0.0 mm
04:55 PM 66.4°F19.1°C -10.1°F-23.4°C 4% 4.0 mph SSW6.4 kmh SSW 7.2 mph11.6 kmh 30.15 in1021.0 mb 0.00 in0.0 mm 0.00 in0.0 mm 0.00 in0.0 mm
05:00 PM 66.0°F18.9°C -0.2°F-17.9°C 7% 5.1 mph NNE8.2 kmh NNE 11.6 mph18.7 kmh 30.15 in1021.0 mb 0.00 in0.0 mm 0.00 in0.0 mm 0.00 in0.0 mm
05:05 PM 65.3°F18.5°C -10.8°F-23.8°C 4% 7.1 mph WSW11.4 kmh WSW 11.6 mph18.7 kmh 30.15 in1021.0 mb 0.00 in0.0 mm 0.00 in0.0 mm 0.00 in0.0 mm
05:10 PM 65.6°F18.7°C -10.6°F-23.7°C 4% 7.0 mph WSW11.3 kmh WSW 10.8 mph17.4 kmh 30.15 in1021.0 mb 0.00 in0.0 mm 0.00 in0.0 mm 0.00 in0.0 mm
05:15 PM 65.5°F18.6°C -10.7°F-23.7°C 4% 4.9 mph S7.9 kmh S 10.8 mph17.4 kmh 30.15 in1021.0 mb 0.00 in0.0 mm 0.00 in0.0 mm 0.00 in0.0 mm
05:21 PM 65.3°F18.5°C -10.8°F-23.8°C 4% 3.2 mph WNW5.1 kmh WNW 9.8 mph15.8 kmh 30.15 in1021.0 mb 0.00 in0.0 mm 0.00 in0.0 mm 0.00 in0.0 mm
05:26 PM 65.1°F18.4°C -11.0°F-23.9°C 4% 5.4 mph NW8.7 kmh NW 11.2 mph18.0 kmh 30.12 in1020.0 mb 0.00 in0.0 mm 0.00 in0.0 mm 0.00 in0.0 mm
05:31 PM 64.7°F18.2°C -7.5°F-21.9°C 5% 3.5 mph W5.6 kmh W 11.2 mph18.0 kmh 30.12 in1020.0 mb 0.00 in0.0 mm 0.00 in0.0 mm 0.00 in0.0 mm
05:36 PM 64.6°F18.1°C -7.6°F-22.0°C 5% 5.1 mph SSW8.2 kmh SSW 7.2 mph11.6 kmh 30.12 in1020.0 mb 0.00 in0.0 mm 0.00 in0.0 mm 0.00 in0.0 mm
05:41 PM 64.0°F17.8°C -8.0°F-22.2°C 5% 5.1 mph WNW8.2 kmh WNW 7.2 mph11.6 kmh 30.09 in1019.0 mb 0.00 in0.0 mm 0.00 in0.0 mm 0.00 in0.0 mm
05:47 PM 63.3°F17.4°C -8.5°F-22.5°C 5% 4.4 mph W7.1 kmh W 7.6 mph12.2 kmh 30.09 in1019.0 mb 0.00 in0.0 mm 0.00 in0.0 mm 0.00 in0.0 mm
05:51 PM 63.5°F17.5°C -8.4°F-22.4°C 5% 4.5 mph NW7.2 kmh NW 7.6 mph12.2 kmh 30.09 in1019.0 mb 0.00 in0.0 mm 0.00 in0.0 mm 0.00 in0.0 mm
05:57 PM 63.8°F17.7°C -4.8°F-20.4°C 6% 3.6 mph NE5.8 kmh NE 6.2 mph10.0 kmh 30.09 in1019.0 mb 0.00 in0.0 mm 0.00 in0.0 mm 0.00 in0.0 mm
06:01 PM 64.0°F17.8°C 8.1°F-13.3°C 11% 3.3 mph SSE5.3 kmh SSE 5.8 mph9.3 kmh 30.09 in1019.0 mb 0.00 in0.0 mm 0.00 in0.0 mm 0.00 in0.0 mm
06:07 PM 63.5°F17.5°C 7.8°F-13.4°C 11% 4.4 mph SSE7.1 kmh SSE 7.2 mph11.6 kmh 30.09 in1019.0 mb 0.00 in0.0 mm 0.00 in0.0 mm 0.00 in0.0 mm
06:11 PM 63.1°F17.3°C 0.4°F-17.6°C 8% 5.1 mph SSE8.2 kmh SSE 9.4 mph15.1 kmh 30.09 in1019.0 mb 0.00 in0.0 mm 0.00 in0.0 mm 0.00 in0.0 mm
06:16 PM 62.6°F17.0°C 7.1°F-13.8°C 11% 3.7 mph S6.0 kmh S 9.4 mph15.1 kmh 30.09 in1019.0 mb 0.00 in0.0 mm 0.00 in0.0 mm 0.00 in0.0 mm
06:22 PM 62.6°F17.0°C 10.9°F-11.7°C 13% 3.8 mph ENE6.1 kmh ENE 5.4 mph8.7 kmh 30.09 in1019.0 mb 0.00 in0.0 mm 0.00 in0.0 mm 0.00 in0.0 mm
06:27 PM 62.4°F16.9°C 10.7°F-11.8°C 13% 2.1 mph SSE3.4 kmh SSE 5.4 mph8.7 kmh 30.09 in1019.0 mb 0.00 in0.0 mm 0.00 in0.0 mm 0.00 in0.0 mm
06:32 PM 61.5°F16.4°C 11.7°F-11.3°C 14% Calm Calm 4.0 mph6.4 kmh 30.09 in1019.0 mb 0.00 in0.0 mm 0.00 in0.0 mm 0.00 in0.0 mm
06:37 PM 60.8°F16.0°C 18.2°F-7.7°C 19% 4.1 mph SSW6.6 kmh SSW 5.4 mph8.7 kmh 30.09 in1019.0 mb 0.00 in0.0 mm 0.00 in0.0 mm 0.00 in0.0 mm
06:42 PM 60.4°F15.8°C 10.8°F-11.8°C 14% 4.2 mph SSW6.8 kmh SSW 7.2 mph11.6 kmh 30.09 in1019.0 mb 0.00 in0.0 mm 0.00 in0.0 mm 0.00 in0.0 mm
06:47 PM 60.1°F15.6°C 15.1°F-9.4°C 17% 4.1 mph S6.6 kmh S 8.0 mph12.9 kmh 30.09 in1019.0 mb 0.00 in0.0 mm 0.00 in0.0 mm 0.00 in0.0 mm
06:53 PM 59.8°F15.4°C 14.7°F-9.6°C 17% 3.4 mph S5.5 kmh S 8.0 mph12.9 kmh 30.09 in1019.0 mb 0.00 in0.0 mm 0.00 in0.0 mm 0.00 in0.0 mm
06:58 PM 59.6°F15.3°C 17.1°F-8.3°C 19% 2.6 mph S4.2 kmh S 7.2 mph11.6 kmh 30.09 in1019.0 mb 0.00 in0.0 mm 0.00 in0.0 mm 0.00 in0.0 mm
07:03 PM 59.3°F15.2°C 20.2°F-6.6°C 22% 2.4 mph S3.9 kmh S 4.4 mph7.1 kmh 30.09 in1019.0 mb 0.00 in0.0 mm 0.00 in0.0 mm 0.00 in0.0 mm
07:08 PM 58.7°F14.8°C 22.7°F-5.2°C 25% 4.2 mph S6.8 kmh S 5.8 mph9.3 kmh 30.09 in1019.0 mb 0.00 in0.0 mm 0.00 in0.0 mm 0.00 in0.0 mm
07:13 PM 58.5°F14.7°C 22.5°F-5.3°C 25% 5.5 mph S8.9 kmh S 6.2 mph10.0 kmh 30.09 in1019.0 mb 0.00 in0.0 mm 0.00 in0.0 mm 0.00 in0.0 mm
07:18 PM 58.5°F14.7°C 21.6°F-5.8°C 24% 3.8 mph S6.1 kmh S 7.6 mph12.2 kmh 30.09 in1019.0 mb 0.00 in0.0 mm 0.00 in0.0 mm 0.00 in0.0 mm
07:25 PM 58.0°F14.4°C 21.2°F-6.0°C 24% 3.9 mph S6.3 kmh S 7.6 mph12.2 kmh 30.06 in1017.9 mb 0.00 in0.0 mm 0.00 in0.0 mm 0.00 in0.0 mm
07:30 PM 57.8°F14.3°C 21.9°F-5.6°C 25% 3.4 mph S5.5 kmh S 7.2 mph11.6 kmh 30.06 in1017.9 mb 0.00 in0.0 mm 0.00 in0.0 mm 0.00 in0.0 mm
07:35 PM 57.6°F14.2°C 21.8°F-5.7°C 25% 3.5 mph S5.6 kmh S 5.0 mph8.0 kmh 30.06 in1017.9 mb 0.00 in0.0 mm 0.00 in0.0 mm 0.00 in0.0 mm
07:40 PM 57.3°F14.1°C 21.5°F-5.8°C 25% 4.3 mph S6.9 kmh S 5.8 mph9.3 kmh 30.09 in1019.0 mb 0.00 in0.0 mm 0.00 in0.0 mm 0.00 in0.0 mm
07:46 PM 56.9°F13.8°C 22.1°F-5.5°C 26% 2.8 mph S4.5 kmh S 5.8 mph9.3 kmh 30.09 in1019.0 mb 0.00 in0.0 mm 0.00 in0.0 mm 0.00 in0.0 mm
07:50 PM 56.4°F13.6°C 22.5°F-5.3°C 27% 2.2 mph S3.5 kmh S 5.8 mph9.3 kmh 30.09 in1019.0 mb 0.00 in0.0 mm 0.00 in0.0 mm 0.00 in0.0 mm
07:56 PM 56.0°F13.3°C 21.3°F-5.9°C 26% 3.5 mph S5.6 kmh S 4.0 mph6.4 kmh 30.09 in1019.0 mb 0.00 in0.0 mm 0.00 in0.0 mm 0.00 in0.0 mm
08:01 PM 55.8°F13.2°C 21.1°F-6.1°C 26% 2.5 mph S4.0 kmh S 4.4 mph7.1 kmh 30.09 in1019.0 mb 0.00 in0.0 mm 0.00 in0.0 mm 0.00 in0.0 mm
08:10 PM 55.5°F13.1°C 21.8°F-5.7°C 27% 3.4 mph SSE5.5 kmh SSE 5.0 mph8.0 kmh 30.06 in1017.9 mb 0.00 in0.0 mm 0.00 in0.0 mm 0.00 in0.0 mm
08:15 PM 55.1°F12.8°C 21.4°F-5.9°C 27% 3.3 mph SSE5.3 kmh SSE 5.0 mph8.0 kmh 30.06 in1017.9 mb 0.00 in0.0 mm 0.00 in0.0 mm 0.00 in0.0 mm
08:20 PM 54.8°F12.7°C 22.0°F-5.6°C 28% 2.5 mph SSE4.0 kmh SSE 4.4 mph7.1 kmh 30.06 in1017.9 mb 0.00 in0.0 mm 0.00 in0.0 mm 0.00 in0.0 mm
08:25 PM 53.7°F12.1°C 21.9°F-5.6°C 29% Calm Calm 4.0 mph6.4 kmh 30.09 in1019.0 mb 0.00 in0.0 mm 0.00 in0.0 mm 0.00 in0.0 mm
08:30 PM 53.1°F11.7°C 22.2°F-5.4°C 30% Calm Calm 1.8 mph2.9 kmh 30.09 in1019.0 mb 0.00 in0.0 mm 0.00 in0.0 mm 0.00 in0.0 mm
08:35 PM 52.6°F11.4°C 23.2°F-4.9°C 32% 2.0 mph SSE3.2 kmh SSE 2.2 mph3.5 kmh 30.09 in1019.0 mb 0.00 in0.0 mm 0.00 in0.0 mm 0.00 in0.0 mm
08:41 PM 52.1°F11.2°C 24.3°F-4.3°C 34% 1.8 mph SSE2.9 kmh SSE 3.2 mph5.1 kmh 30.06 in1017.9 mb 0.00 in0.0 mm 0.00 in0.0 mm 0.00 in0.0 mm
08:46 PM 51.7°F10.9°C 24.6°F-4.1°C 35% 2.8 mph SSE4.5 kmh SSE 3.2 mph5.1 kmh 30.06 in1017.9 mb 0.00 in0.0 mm 0.00 in0.0 mm 0.00 in0.0 mm
08:51 PM 51.3°F10.7°C 24.9°F-3.9°C 36% Calm Calm 3.2 mph5.1 kmh 30.06 in1017.9 mb 0.00 in0.0 mm 0.00 in0.0 mm 0.00 in0.0 mm
08:56 PM 50.8°F10.4°C 24.5°F-4.2°C 36% Calm Calm 3.2 mph5.1 kmh 30.06 in1017.9 mb 0.00 in0.0 mm 0.00 in0.0 mm 0.00 in0.0 mm
09:01 PM 50.8°F10.4°C 24.5°F-4.2°C 36% 2.0 mph SSE3.2 kmh SSE 2.6 mph4.2 kmh 30.06 in1017.9 mb 0.00 in0.0 mm 0.00 in0.0 mm 0.00 in0.0 mm
09:06 PM 50.6°F10.3°C 24.3°F-4.3°C 36% 2.9 mph S4.7 kmh S 4.4 mph7.1 kmh 30.06 in1017.9 mb 0.00 in0.0 mm 0.00 in0.0 mm 0.00 in0.0 mm
09:11 PM 50.6°F10.3°C 25.0°F-3.9°C 37% 2.0 mph S3.2 kmh S 4.4 mph7.1 kmh 30.06 in1017.9 mb 0.00 in0.0 mm 0.00 in0.0 mm 0.00 in0.0 mm
09:16 PM 50.4°F10.2°C 24.8°F-4.0°C 37% Calm Calm 4.0 mph6.4 kmh 30.06 in1017.9 mb 0.00 in0.0 mm 0.00 in0.0 mm 0.00 in0.0 mm
09:21 PM 50.1°F10.1°C 24.5°F-4.2°C 37% Calm Calm 4.0 mph6.4 kmh 30.06 in1017.9 mb 0.00 in0.0 mm 0.00 in0.0 mm 0.00 in0.0 mm
09:26 PM 49.5°F9.7°C 24.0°F-4.4°C 37% Calm Calm -- 30.09 in1019.0 mb 0.00 in0.0 mm 0.00 in0.0 mm 0.00 in0.0 mm
09:31 PM 49.4°F9.7°C 23.9°F-4.5°C 37% 2.2 mph SSE3.5 kmh SSE 2.2 mph3.5 kmh 30.09 in1019.0 mb 0.00 in0.0 mm 0.00 in0.0 mm 0.00 in0.0 mm
09:36 PM 49.0°F9.4°C 23.5°F-4.7°C 37% 2.3 mph SSE3.7 kmh SSE 2.6 mph4.2 kmh 30.09 in1019.0 mb 0.00 in0.0 mm 0.00 in0.0 mm 0.00 in0.0 mm
09:42 PM 48.8°F9.3°C 24.0°F-4.4°C 38% 2.2 mph SSE3.5 kmh SSE 2.6 mph4.2 kmh 30.09 in1019.0 mb 0.00 in0.0 mm 0.00 in0.0 mm 0.00 in0.0 mm
09:47 PM 48.5°F9.2°C 23.7°F-4.6°C 38% Calm Calm 2.6 mph4.2 kmh 30.09 in1019.0 mb 0.00 in0.0 mm 0.00 in0.0 mm 0.00 in0.0 mm
09:52 PM 48.1°F8.9°C 23.4°F-4.8°C 38% Calm Calm -- 30.09 in1019.0 mb 0.00 in0.0 mm 0.00 in0.0 mm 0.00 in0.0 mm
09:57 PM 47.7°F8.7°C 24.3°F-4.3°C 40% Calm Calm -- 30.09 in1019.0 mb 0.00 in0.0 mm 0.00 in0.0 mm 0.00 in0.0 mm
10:02 PM 47.2°F8.4°C 23.8°F-4.6°C 40% Calm Calm -- 30.09 in1019.0 mb 0.00 in0.0 mm 0.00 in0.0 mm 0.00 in0.0 mm
10:07 PM 47.2°F8.4°C 23.8°F-4.6°C 40% 3.6 mph SSE5.8 kmh SSE 5.0 mph8.0 kmh 30.09 in1019.0 mb 0.00 in0.0 mm 0.00 in0.0 mm 0.00 in0.0 mm
10:12 PM 47.6°F8.7°C 24.2°F-4.3°C 40% 3.3 mph SSE5.3 kmh SSE 5.0 mph8.0 kmh 30.09 in1019.0 mb 0.00 in0.0 mm 0.00 in0.0 mm 0.00 in0.0 mm
10:17 PM 47.9°F8.8°C 24.5°F-4.2°C 40% 3.8 mph S6.1 kmh S 5.4 mph8.7 kmh 30.09 in1019.0 mb 0.00 in0.0 mm 0.00 in0.0 mm 0.00 in0.0 mm
10:22 PM 47.6°F8.7°C 24.8°F-4.0°C 41% Calm Calm 5.4 mph8.7 kmh 30.09 in1019.0 mb 0.00 in0.0 mm 0.00 in0.0 mm 0.00 in0.0 mm
10:27 PM 47.2°F8.4°C 24.4°F-4.2°C 41% 1.9 mph S3.1 kmh S 2.2 mph3.5 kmh 30.09 in1019.0 mb 0.00 in0.0 mm 0.00 in0.0 mm 0.00 in0.0 mm
10:33 PM 47.2°F8.4°C 24.4°F-4.2°C 41% 4.6 mph SSE7.4 kmh SSE 5.4 mph8.7 kmh 30.09 in1019.0 mb 0.00 in0.0 mm 0.00 in0.0 mm 0.00 in0.0 mm
10:38 PM 47.7°F8.7°C 24.9°F-3.9°C 41% 3.5 mph S5.6 kmh S 6.2 mph10.0 kmh 30.06 in1017.9 mb 0.00 in0.0 mm 0.00 in0.0 mm 0.00 in0.0 mm
10:43 PM 47.9°F8.8°C 25.1°F-3.8°C 41% 5.2 mph S8.4 kmh S 6.2 mph10.0 kmh 30.06 in1017.9 mb 0.00 in0.0 mm 0.00 in0.0 mm 0.00 in0.0 mm
10:48 PM 48.3°F9.1°C 25.4°F-3.7°C 41% 4.9 mph S7.9 kmh S 6.8 mph10.9 kmh 30.06 in1017.9 mb 0.00 in0.0 mm 0.00 in0.0 mm 0.00 in0.0 mm
10:53 PM 48.3°F9.1°C 25.4°F-3.7°C 41% 3.1 mph S5.0 kmh S 6.8 mph10.9 kmh 30.06 in1017.9 mb 0.00 in0.0 mm 0.00 in0.0 mm 0.00 in0.0 mm
10:58 PM 48.1°F8.9°C 25.2°F-3.8°C 41% 2.9 mph SSE4.7 kmh SSE 5.4 mph8.7 kmh 30.06 in1017.9 mb 0.00 in0.0 mm 0.00 in0.0 mm 0.00 in0.0 mm
11:03 PM 48.3°F9.1°C 25.4°F-3.7°C 41% 4.2 mph SSE6.8 kmh SSE 5.0 mph8.0 kmh 30.06 in1017.9 mb 0.00 in0.0 mm 0.00 in0.0 mm 0.00 in0.0 mm
11:08 PM 48.5°F9.2°C 25.6°F-3.6°C 41% 5.0 mph S8.0 kmh S 5.4 mph8.7 kmh 30.09 in1019.0 mb 0.00 in0.0 mm 0.00 in0.0 mm 0.00 in0.0 mm
11:13 PM 48.6°F9.2°C 25.1°F-3.8°C 40% 5.3 mph S8.5 kmh S 6.2 mph10.0 kmh 30.09 in1019.0 mb 0.00 in0.0 mm 0.00 in0.0 mm 0.00 in0.0 mm
11:18 PM 48.6°F9.2°C 25.7°F-3.5°C 41% 4.8 mph S7.7 kmh S 6.8 mph10.9 kmh 30.09 in1019.0 mb 0.00 in0.0 mm 0.00 in0.0 mm 0.00 in0.0 mm
11:24 PM 48.1°F8.9°C 25.2°F-3.8°C 41% 2.4 mph S3.9 kmh S 6.8 mph10.9 kmh 30.06 in1017.9 mb 0.00 in0.0 mm 0.00 in0.0 mm 0.00 in0.0 mm
11:29 PM 47.7°F8.7°C 24.9°F-3.9°C 41% 3.3 mph S5.3 kmh S 5.4 mph8.7 kmh 30.06 in1017.9 mb 0.00 in0.0 mm 0.00 in0.0 mm 0.00 in0.0 mm
11:34 PM 47.7°F8.7°C 25.5°F-3.6°C 42% 4.0 mph S6.4 kmh S 5.4 mph8.7 kmh 30.06 in1017.9 mb 0.00 in0.0 mm 0.00 in0.0 mm 0.00 in0.0 mm
11:39 PM 47.6°F8.7°C 25.4°F-3.7°C 42% 2.1 mph S3.4 kmh S 5.4 mph8.7 kmh 30.09 in1019.0 mb 0.00 in0.0 mm 0.00 in0.0 mm 0.00 in0.0 mm
11:44 PM 47.9°F8.8°C 25.7°F-3.5°C 42% 5.7 mph S9.2 kmh S 7.2 mph11.6 kmh 30.09 in1019.0 mb 0.00 in0.0 mm 0.00 in0.0 mm 0.00 in0.0 mm
11:49 PM 48.1°F8.9°C 25.2°F-3.8°C 41% 5.0 mph S8.0 kmh S 7.2 mph11.6 kmh 30.09 in1019.0 mb 0.00 in0.0 mm 0.00 in0.0 mm 0.00 in0.0 mm
11:56 PM 48.3°F9.1°C 25.4°F-3.7°C 41% 5.5 mph S8.9 kmh S 7.2 mph11.6 kmh 30.09 in1019.0 mb 0.00 in0.0 mm 0.00 in0.0 mm 0.00 in0.0 mm